sensor_id;sensor_type;location;lat;lon;timestamp;pressure;altitude;pressure_sealevel;temperature;humidity
35577;BME280;21680;52.400;16.920;2023-02-11T00:01:33;102054.29;;;1.01;82.45
35577;BME280;21680;52.400;16.920;2023-02-11T00:03:59;102052.00;;;1.01;82.72
35577;BME280;21680;52.400;16.920;2023-02-11T00:06:26;102043.73;;;1.01;82.57
35577;BME280;21680;52.400;16.920;2023-02-11T00:08:52;102038.12;;;1.02;82.77
35577;BME280;21680;52.400;16.920;2023-02-11T00:11:17;102032.16;;;1.03;82.67
35577;BME280;21680;52.400;16.920;2023-02-11T00:13:44;102031.63;;;1.03;82.56
35577;BME280;21680;52.400;16.920;2023-02-11T00:16:10;102030.44;;;1.05;82.75
35577;BME280;21680;52.400;16.920;2023-02-11T00:18:36;102027.45;;;1.06;82.74
35577;BME280;21680;52.400;16.920;2023-02-11T00:21:08;102023.05;;;1.06;82.71
35577;BME280;21680;52.400;16.920;2023-02-11T00:23:33;102020.23;;;1.06;82.81
35577;BME280;21680;52.400;16.920;2023-02-11T00:25:59;102021.83;;;1.07;82.88
35577;BME280;21680;52.400;16.920;2023-02-11T00:28:24;102021.36;;;1.10;82.97
35577;BME280;21680;52.400;16.920;2023-02-11T00:30:56;102017.19;;;1.13;82.86
35577;BME280;21680;52.400;16.920;2023-02-11T00:33:22;102012.30;;;1.15;83.05
35577;BME280;21680;52.400;16.920;2023-02-11T00:35:48;102008.66;;;1.18;83.17
35577;BME280;21680;52.400;16.920;2023-02-11T00:38:13;102003.76;;;1.20;83.18
35577;BME280;21680;52.400;16.920;2023-02-11T00:40:38;102010.46;;;1.21;82.96
35577;BME280;21680;52.400;16.920;2023-02-11T00:43:04;102011.20;;;1.23;83.19
35577;BME280;21680;52.400;16.920;2023-02-11T00:45:29;102007.34;;;1.23;82.95
35577;BME280;21680;52.400;16.920;2023-02-11T00:47:54;102000.66;;;1.24;83.14
35577;BME280;21680;52.400;16.920;2023-02-11T00:50:20;101987.13;;;1.26;83.08
35577;BME280;21680;52.400;16.920;2023-02-11T00:52:45;101968.63;;;1.25;83.13
35577;BME280;21680;52.400;16.920;2023-02-11T00:55:10;101964.39;;;1.24;83.13
35577;BME280;21680;52.400;16.920;2023-02-11T00:57:35;101948.36;;;1.24;83.11
35577;BME280;21680;52.400;16.920;2023-02-11T01:00:01;101935.17;;;1.25;82.95
35577;BME280;21680;52.400;16.920;2023-02-11T01:02:26;101930.76;;;1.24;83.04
35577;BME280;21680;52.400;16.920;2023-02-11T01:04:51;101926.70;;;1.24;83.03
35577;BME280;21680;52.400;16.920;2023-02-11T01:07:16;101920.55;;;1.24;83.13
35577;BME280;21680;52.400;16.920;2023-02-11T01:09:42;101909.45;;;1.24;82.96
35577;BME280;21680;52.400;16.920;2023-02-11T01:12:07;101894.84;;;1.24;82.95
35577;BME280;21680;52.400;16.920;2023-02-11T01:14:32;101892.36;;;1.23;83.11
35577;BME280;21680;52.400;16.920;2023-02-11T01:16:57;101878.61;;;1.22;82.96
35577;BME280;21680;52.400;16.920;2023-02-11T01:19:22;101872.43;;;1.21;83.04
35577;BME280;21680;52.400;16.920;2023-02-11T01:21:48;101865.90;;;1.20;82.86
35577;BME280;21680;52.400;16.920;2023-02-11T01:24:13;101862.36;;;1.18;83.01
35577;BME280;21680;52.400;16.920;2023-02-11T01:26:38;101858.48;;;1.18;82.91
35577;BME280;21680;52.400;16.920;2023-02-11T01:29:03;101859.71;;;1.18;82.96
35577;BME280;21680;52.400;16.920;2023-02-11T01:31:29;101862.00;;;1.18;82.71
35577;BME280;21680;52.400;16.920;2023-02-11T01:33:54;101863.08;;;1.19;82.90
35577;BME280;21680;52.400;16.920;2023-02-11T01:36:20;101864.67;;;1.20;83.04
35577;BME280;21680;52.400;16.920;2023-02-11T01:38:45;101868.02;;;1.20;82.92
35577;BME280;21680;52.400;16.920;2023-02-11T01:41:11;101877.36;;;1.20;82.92
35577;BME280;21680;52.400;16.920;2023-02-11T01:43:39;101889.70;;;1.21;82.82
35577;BME280;21680;52.400;16.920;2023-02-11T01:48:37;101902.57;;;1.23;82.86
35577;BME280;21680;52.400;16.920;2023-02-11T01:51:05;101900.64;;;1.24;82.79
35577;BME280;21680;52.400;16.920;2023-02-11T01:53:32;101914.04;;;1.24;82.82
35577;BME280;21680;52.400;16.920;2023-02-11T01:56:16;101924.41;;;1.24;82.80
35577;BME280;21680;52.400;16.920;2023-02-11T01:59:03;101918.43;;;1.24;82.71
35577;BME280;21680;52.400;16.920;2023-02-11T02:01:30;101931.65;;;1.25;82.75
35577;BME280;21680;52.400;16.920;2023-02-11T02:03:56;101923.76;;;1.27;82.58
35577;BME280;21680;52.400;16.920;2023-02-11T02:06:30;101915.83;;;1.27;82.69
35577;BME280;21680;52.400;16.920;2023-02-11T02:09:04;101914.42;;;1.27;82.73
35577;BME280;21680;52.400;16.920;2023-02-11T02:11:30;101915.66;;;1.26;82.82
35577;BME280;21680;52.400;16.920;2023-02-11T02:13:56;101891.70;;;1.26;82.60
35577;BME280;21680;52.400;16.920;2023-02-11T02:16:21;101884.48;;;1.26;82.53
35577;BME280;21680;52.400;16.920;2023-02-11T02:34:36;101841.28;;;1.22;82.57
35577;BME280;21680;52.400;16.920;2023-02-11T02:37:28;101838.45;;;1.21;82.57
35577;BME280;21680;52.400;16.920;2023-02-11T02:39:51;101834.05;;;1.20;82.51
35577;BME280;21680;52.400;16.920;2023-02-11T02:42:16;101827.16;;;1.19;82.48
35577;BME280;21680;52.400;16.920;2023-02-11T02:44:49;101824.50;;;1.18;82.61
35577;BME280;21680;52.400;16.920;2023-02-11T02:47:15;101812.52;;;1.17;82.37
35577;BME280;21680;52.400;16.920;2023-02-11T02:49:40;101815.67;;;1.16;82.45
35577;BME280;21680;52.400;16.920;2023-02-11T02:52:24;101810.39;;;1.16;82.52
35577;BME280;21680;52.400;16.920;2023-02-11T02:57:37;101810.06;;;1.18;82.38
35577;BME280;21680;52.400;16.920;2023-02-11T03:09:59;101796.91;;;1.22;82.38
35577;BME280;21680;52.400;16.920;2023-02-11T03:12:27;101795.87;;;1.22;82.56
35577;BME280;21680;52.400;16.920;2023-02-11T03:14:54;101794.13;;;1.23;82.32
35577;BME280;21680;52.400;16.920;2023-02-11T03:17:19;101795.18;;;1.23;82.46
35577;BME280;21680;52.400;16.920;2023-02-11T03:19:46;101787.61;;;1.23;82.15
35577;BME280;21680;52.400;16.920;2023-02-11T03:22:15;101785.86;;;1.24;82.26
35577;BME280;21680;52.400;16.920;2023-02-11T03:24:41;101785.69;;;1.24;82.09
35577;BME280;21680;52.400;16.920;2023-02-11T03:27:20;101783.59;;;1.25;82.22
35577;BME280;21680;52.400;16.920;2023-02-11T03:29:51;101782.89;;;1.26;82.30
35577;BME280;21680;52.400;16.920;2023-02-11T03:32:28;101779.54;;;1.26;82.36
35577;BME280;21680;52.400;16.920;2023-02-11T03:34:59;101772.69;;;1.27;82.08
35577;BME280;21680;52.400;16.920;2023-02-11T03:37:29;101762.48;;;1.27;82.34
35577;BME280;21680;52.400;16.920;2023-02-11T03:39:59;101759.34;;;1.29;82.32
35577;BME280;21680;52.400;16.920;2023-02-11T03:42:26;101747.20;;;1.30;82.12
35577;BME280;21680;52.400;16.920;2023-02-11T03:44:56;101736.14;;;1.33;82.25
35577;BME280;21680;52.400;16.920;2023-02-11T03:47:22;101724.86;;;1.33;82.30
35577;BME280;21680;52.400;16.920;2023-02-11T03:49:49;101725.41;;;1.34;82.24
35577;BME280;21680;52.400;16.920;2023-02-11T03:52:16;101725.41;;;1.35;82.19
35577;BME280;21680;52.400;16.920;2023-02-11T03:54:42;101723.48;;;1.35;82.15
35577;BME280;21680;52.400;16.920;2023-02-11T03:57:09;101713.98;;;1.35;82.08
35577;BME280;21680;52.400;16.920;2023-02-11T04:00:08;101714.33;;;1.35;82.20
35577;BME280;21680;52.400;16.920;2023-02-11T04:02:28;101706.92;;;1.35;82.09
35577;BME280;21680;52.400;16.920;2023-02-11T04:04:54;101697.76;;;1.34;81.89
35577;BME280;21680;52.400;16.920;2023-02-11T04:07:19;101684.20;;;1.33;82.19
35577;BME280;21680;52.400;16.920;2023-02-11T04:09:44;101682.60;;;1.33;81.99
35577;BME280;21680;52.400;16.920;2023-02-11T04:12:09;101684.01;;;1.31;81.82
35577;BME280;21680;52.400;16.920;2023-02-11T04:14:35;101688.41;;;1.33;81.89
35577;BME280;21680;52.400;16.920;2023-02-11T04:17:00;101688.61;;;1.34;82.00
35577;BME280;21680;52.400;16.920;2023-02-11T04:19:25;101685.63;;;1.35;81.87
35577;BME280;21680;52.400;16.920;2023-02-11T04:21:50;101680.71;;;1.37;81.97
35577;BME280;21680;52.400;16.920;2023-02-11T04:24:15;101675.99;;;1.40;82.04
35577;BME280;21680;52.400;16.920;2023-02-11T04:26:41;101674.42;;;1.42;82.06
35577;BME280;21680;52.400;16.920;2023-02-11T04:29:06;101677.63;;;1.44;82.05
35577;BME280;21680;52.400;16.920;2023-02-11T04:31:31;101670.42;;;1.46;81.79
35577;BME280;21680;52.400;16.920;2023-02-11T04:33:57;101664.98;;;1.47;82.14
35577;BME280;21680;52.400;16.920;2023-02-11T04:36:22;101667.81;;;1.49;81.99
35577;BME280;21680;52.400;16.920;2023-02-11T04:38:47;101658.67;;;1.51;82.04
35577;BME280;21680;52.400;16.920;2023-02-11T04:41:12;101655.87;;;1.53;81.99
35577;BME280;21680;52.400;16.920;2023-02-11T04:43:38;101652.71;;;1.54;82.22
35577;BME280;21680;52.400;16.920;2023-02-11T04:46:03;101651.48;;;1.55;82.18
35577;BME280;21680;52.400;16.920;2023-02-11T04:48:28;101649.03;;;1.56;82.11
35577;BME280;21680;52.400;16.920;2023-02-11T04:50:53;101650.44;;;1.56;82.19
35577;BME280;21680;52.400;16.920;2023-02-11T04:53:19;101651.34;;;1.58;82.43
35577;BME280;21680;52.400;16.920;2023-02-11T04:55:44;101659.11;;;1.60;82.35
35577;BME280;21680;52.400;16.920;2023-02-11T04:58:12;101667.05;;;1.62;82.24
35577;BME280;21680;52.400;16.920;2023-02-11T05:00:37;101654.55;;;1.62;82.51
35577;BME280;21680;52.400;16.920;2023-02-11T05:03:02;101649.98;;;1.63;82.44
35577;BME280;21680;52.400;16.920;2023-02-11T05:05:27;101647.52;;;1.65;82.49
35577;BME280;21680;52.400;16.920;2023-02-11T05:07:52;101652.28;;;1.65;82.72
35577;BME280;21680;52.400;16.920;2023-02-11T05:10:18;101632.02;;;1.64;82.54
35577;BME280;21680;52.400;16.920;2023-02-11T05:12:43;101630.27;;;1.65;82.70
35577;BME280;21680;52.400;16.920;2023-02-11T05:15:08;101620.58;;;1.66;82.80
35577;BME280;21680;52.400;16.920;2023-02-11T05:17:33;101623.23;;;1.66;82.81
35577;BME280;21680;52.400;16.920;2023-02-11T05:19:58;101618.82;;;1.66;82.83
35577;BME280;21680;52.400;16.920;2023-02-11T05:22:24;101612.84;;;1.67;83.00
35577;BME280;21680;52.400;16.920;2023-02-11T05:24:49;101614.25;;;1.67;83.03
35577;BME280;21680;52.400;16.920;2023-02-11T05:27:14;101616.89;;;1.68;83.17
35577;BME280;21680;52.400;16.920;2023-02-11T05:29:39;101621.85;;;1.70;83.28
35577;BME280;21680;52.400;16.920;2023-02-11T05:32:04;101615.33;;;1.71;83.15
35577;BME280;21680;52.400;16.920;2023-02-11T05:34:31;101608.99;;;1.71;83.30
35577;BME280;21680;52.400;16.920;2023-02-11T05:36:56;101607.94;;;1.71;83.40
35577;BME280;21680;52.400;16.920;2023-02-11T05:39:21;101606.16;;;1.69;83.44
35577;BME280;21680;52.400;16.920;2023-02-11T05:41:46;101611.64;;;1.71;83.44
35577;BME280;21680;52.400;16.920;2023-02-11T05:44:12;101606.02;;;1.72;83.63
35577;BME280;21680;52.400;16.920;2023-02-11T05:46:37;101597.02;;;1.72;83.54
35577;BME280;21680;52.400;16.920;2023-02-11T05:49:02;101598.25;;;1.71;83.59
35577;BME280;21680;52.400;16.920;2023-02-11T05:51:28;101594.21;;;1.72;83.73
35577;BME280;21680;52.400;16.920;2023-02-11T05:53:53;101591.04;;;1.73;83.66
35577;BME280;21680;52.400;16.920;2023-02-11T05:56:18;101585.41;;;1.73;83.64
35577;BME280;21680;52.400;16.920;2023-02-11T05:58:43;101588.23;;;1.74;83.81
35577;BME280;21680;52.400;16.920;2023-02-11T06:01:08;101596.51;;;1.74;83.79
35577;BME280;21680;52.400;16.920;2023-02-11T06:03:34;101593.52;;;1.74;83.96
35577;BME280;21680;52.400;16.920;2023-02-11T06:05:59;101599.85;;;1.74;83.84
35577;BME280;21680;52.400;16.920;2023-02-11T06:08:25;101597.39;;;1.73;83.89
35577;BME280;21680;52.400;16.920;2023-02-11T06:10:50;101589.29;;;1.75;84.10
35577;BME280;21680;52.400;16.920;2023-02-11T06:13:15;101591.59;;;1.76;84.21
35577;BME280;21680;52.400;16.920;2023-02-11T06:15:42;101582.80;;;1.78;84.35
35577;BME280;21680;52.400;16.920;2023-02-11T06:18:08;101579.09;;;1.77;84.23
35577;BME280;21680;52.400;16.920;2023-02-11T06:20:33;101584.91;;;1.77;84.23
35577;BME280;21680;52.400;16.920;2023-02-11T06:22:59;101587.21;;;1.79;84.44
35577;BME280;21680;52.400;16.920;2023-02-11T06:25:24;101591.80;;;1.81;84.52
35577;BME280;21680;52.400;16.920;2023-02-11T06:27:49;101598.15;;;1.82;84.50
35577;BME280;21680;52.400;16.920;2023-02-11T06:30:14;101595.35;;;1.84;84.70
35577;BME280;21680;52.400;16.920;2023-02-11T06:32:40;101592.89;;;1.84;84.62
35577;BME280;21680;52.400;16.920;2023-02-11T06:35:05;101602.94;;;1.85;84.87
35577;BME280;21680;52.400;16.920;2023-02-11T06:37:32;101591.67;;;1.86;84.83
35577;BME280;21680;52.400;16.920;2023-02-11T06:39:57;101575.64;;;1.86;84.98
35577;BME280;21680;52.400;16.920;2023-02-11T06:42:22;101575.29;;;1.87;85.11
35577;BME280;21680;52.400;16.920;2023-02-11T06:44:47;101569.13;;;1.87;85.25
35577;BME280;21680;52.400;16.920;2023-02-11T06:47:12;101568.42;;;1.88;85.07
35577;BME280;21680;52.400;16.920;2023-02-11T06:49:38;101569.99;;;1.86;85.45
35577;BME280;21680;52.400;16.920;2023-02-11T06:52:03;101568.41;;;1.86;85.37
35577;BME280;21680;52.400;16.920;2023-02-11T06:54:28;101581.11;;;1.87;85.37
35577;BME280;21680;52.400;16.920;2023-02-11T06:56:53;101586.59;;;1.91;85.73
35577;BME280;21680;52.400;16.920;2023-02-11T06:59:19;101586.08;;;1.92;85.70
35577;BME280;21680;52.400;16.920;2023-02-11T07:01:47;101583.80;;;1.95;85.80
35577;BME280;21680;52.400;16.920;2023-02-11T07:04:12;101581.36;;;1.99;85.96
35577;BME280;21680;52.400;16.920;2023-02-11T07:06:39;101583.14;;;2.01;85.96
35577;BME280;21680;52.400;16.920;2023-02-11T07:09:04;101570.45;;;2.04;86.42
35577;BME280;21680;52.400;16.920;2023-02-11T07:11:30;101568.88;;;2.04;86.18
35577;BME280;21680;52.400;16.920;2023-02-11T07:13:58;101579.30;;;2.08;86.33
35577;BME280;21680;52.400;16.920;2023-02-11T07:16:23;101582.50;;;2.11;86.72
35577;BME280;21680;52.400;16.920;2023-02-11T07:18:49;101571.40;;;2.13;86.87
35577;BME280;21680;52.400;16.920;2023-02-11T07:21:16;101574.59;;;2.16;87.01
35577;BME280;21680;52.400;16.920;2023-02-11T07:23:41;101573.55;;;2.18;86.78
35577;BME280;21680;52.400;16.920;2023-02-11T07:26:08;101562.98;;;2.20;86.99
35577;BME280;21680;52.400;16.920;2023-02-11T07:28:33;101550.12;;;2.22;87.08
35577;BME280;21680;52.400;16.920;2023-02-11T07:30:59;101550.84;;;2.26;87.29
35577;BME280;21680;52.400;16.920;2023-02-11T07:33:29;101545.75;;;2.30;87.43
35577;BME280;21680;52.400;16.920;2023-02-11T07:35:54;101548.77;;;2.33;87.20
35577;BME280;21680;52.400;16.920;2023-02-11T07:38:19;101554.60;;;2.35;87.45
35577;BME280;21680;52.400;16.920;2023-02-11T07:40:44;101563.05;;;2.36;87.65
35577;BME280;21680;52.400;16.920;2023-02-11T07:43:10;101551.60;;;2.36;87.46
35577;BME280;21680;52.400;16.920;2023-02-11T07:45:37;101538.73;;;2.37;87.84
35577;BME280;21680;52.400;16.920;2023-02-11T07:48:02;101542.80;;;2.40;87.85
35577;BME280;21680;52.400;16.920;2023-02-11T07:50:27;101549.16;;;2.42;87.80
35577;BME280;21680;52.400;16.920;2023-02-11T07:52:52;101544.93;;;2.45;87.99
35577;BME280;21680;52.400;16.920;2023-02-11T07:55:18;101547.05;;;2.46;88.19
35577;BME280;21680;52.400;16.920;2023-02-11T07:57:43;101546.17;;;2.47;88.28
35577;BME280;21680;52.400;16.920;2023-02-11T08:00:08;101541.26;;;2.51;88.16
35577;BME280;21680;52.400;16.920;2023-02-11T08:02:34;101532.98;;;2.56;88.22
35577;BME280;21680;52.400;16.920;2023-02-11T08:04:59;101538.64;;;2.59;88.33
35577;BME280;21680;52.400;16.920;2023-02-11T08:07:24;101541.45;;;2.63;88.33
35577;BME280;21680;52.400;16.920;2023-02-11T08:09:50;101558.58;;;2.67;88.18
35577;BME280;21680;52.400;16.920;2023-02-11T08:12:15;101561.05;;;2.69;88.27
35577;BME280;21680;52.400;16.920;2023-02-11T08:14:40;101561.41;;;2.70;88.50
35577;BME280;21680;52.400;16.920;2023-02-11T08:17:05;101563.17;;;2.71;88.45
35577;BME280;21680;52.400;16.920;2023-02-11T08:19:30;101572.89;;;2.72;88.42
35577;BME280;21680;52.400;16.920;2023-02-11T08:21:56;101575.01;;;2.72;88.31
35577;BME280;21680;52.400;16.920;2023-02-11T08:24:21;101565.83;;;2.71;88.36
35577;BME280;21680;52.400;16.920;2023-02-11T08:26:47;101558.94;;;2.73;88.32
35577;BME280;21680;52.400;16.920;2023-02-11T08:29:13;101556.66;;;2.75;88.36
35577;BME280;21680;52.400;16.920;2023-02-11T08:31:39;101563.73;;;2.77;88.63
35577;BME280;21680;52.400;16.920;2023-02-11T08:34:05;101571.33;;;2.79;88.53
35577;BME280;21680;52.400;16.920;2023-02-11T08:36:31;101556.69;;;2.81;88.72
35577;BME280;21680;52.400;16.920;2023-02-11T08:38:58;101552.28;;;2.85;88.75
35577;BME280;21680;52.400;16.920;2023-02-11T08:41:23;101548.04;;;2.87;88.85
35577;BME280;21680;52.400;16.920;2023-02-11T08:43:49;101549.11;;;2.90;88.91
35577;BME280;21680;52.400;16.920;2023-02-11T08:46:15;101543.28;;;2.91;88.63
35577;BME280;21680;52.400;16.920;2023-02-11T08:48:41;101549.48;;;2.94;88.99
35577;BME280;21680;52.400;16.920;2023-02-11T08:51:07;101536.94;;;2.96;88.76
35577;BME280;21680;52.400;16.920;2023-02-11T08:53:32;101527.23;;;2.98;88.96
35577;BME280;21680;52.400;16.920;2023-02-11T08:55:57;101538.19;;;3.02;88.93
35577;BME280;21680;52.400;16.920;2023-02-11T08:58:23;101544.20;;;3.05;88.99
35577;BME280;21680;52.400;16.920;2023-02-11T09:00:48;101541.20;;;3.08;88.94
35577;BME280;21680;52.400;16.920;2023-02-11T09:03:14;101548.09;;;3.09;88.86
35577;BME280;21680;52.400;16.920;2023-02-11T09:05:43;101539.45;;;3.11;88.95
35577;BME280;21680;52.400;16.920;2023-02-11T09:08:09;101530.61;;;3.12;89.04
35577;BME280;21680;52.400;16.920;2023-02-11T09:10:34;101526.20;;;3.13;88.82
35577;BME280;21680;52.400;16.920;2023-02-11T09:12:59;101531.67;;;3.14;88.99
35577;BME280;21680;52.400;16.920;2023-02-11T09:15:25;101539.63;;;3.15;89.05
35577;BME280;21680;52.400;16.920;2023-02-11T09:17:50;101551.45;;;3.15;89.19
35577;BME280;21680;52.400;16.920;2023-02-11T09:20:15;101550.23;;;3.17;89.08
35577;BME280;21680;52.400;16.920;2023-02-11T09:22:41;101547.57;;;3.18;88.93
35577;BME280;21680;52.400;16.920;2023-02-11T09:25:06;101563.83;;;3.20;89.20
35577;BME280;21680;52.400;16.920;2023-02-11T09:27:31;101549.70;;;3.23;89.14
35577;BME280;21680;52.400;16.920;2023-02-11T09:29:56;101536.45;;;3.22;88.98
35577;BME280;21680;52.400;16.920;2023-02-11T09:32:21;101542.81;;;3.23;88.97
35577;BME280;21680;52.400;16.920;2023-02-11T09:34:47;101539.11;;;3.26;89.06
35577;BME280;21680;52.400;16.920;2023-02-11T09:37:12;101532.23;;;3.29;89.13
35577;BME280;21680;52.400;16.920;2023-02-11T09:39:37;101538.75;;;3.31;89.11
35577;BME280;21680;52.400;16.920;2023-02-11T09:44:29;101528.16;;;3.37;89.12
35577;BME280;21680;52.400;16.920;2023-02-11T09:50:41;101542.12;;;3.45;89.24
35577;BME280;21680;52.400;16.920;2023-02-11T09:52:42;101517.38;;;3.51;89.31
35577;BME280;21680;52.400;16.920;2023-02-11T09:57:42;101492.45;;;3.67;89.28
35577;BME280;21680;52.400;16.920;2023-02-11T10:00:19;101499.68;;;3.72;89.17
35577;BME280;21680;52.400;16.920;2023-02-11T10:03:02;101511.88;;;3.75;89.15
35577;BME280;21680;52.400;16.920;2023-02-11T10:10:51;101535.91;;;3.82;88.99
35577;BME280;21680;52.400;16.920;2023-02-11T10:15:53;101503.89;;;3.92;89.10
35577;BME280;21680;52.400;16.920;2023-02-11T10:18:31;101492.37;;;4.00;89.25
35577;BME280;21680;52.400;16.920;2023-02-11T10:23:32;101486.30;;;4.17;89.26
35577;BME280;21680;52.400;16.920;2023-02-11T10:25:59;101479.73;;;4.25;89.29
35577;BME280;21680;52.400;16.920;2023-02-11T10:28:34;101483.95;;;4.31;89.36
35577;BME280;21680;52.400;16.920;2023-02-11T10:34:11;101469.59;;;4.38;89.24
35577;BME280;21680;52.400;16.920;2023-02-11T10:36:16;101453.64;;;4.41;89.27
35577;BME280;21680;52.400;16.920;2023-02-11T10:38:42;101461.59;;;4.45;89.18
35577;BME280;21680;52.400;16.920;2023-02-11T10:41:27;101451.48;;;4.47;89.19
35577;BME280;21680;52.400;16.920;2023-02-11T10:43:55;101458.39;;;4.47;89.26
35577;BME280;21680;52.400;16.920;2023-02-11T10:46:24;101451.13;;;4.49;89.23
35577;BME280;21680;52.400;16.920;2023-02-11T10:48:53;101438.56;;;4.50;89.23
35577;BME280;21680;52.400;16.920;2023-02-11T10:53:44;101442.79;;;4.51;89.19
35577;BME280;21680;52.400;16.920;2023-02-11T10:56:12;101437.13;;;4.52;89.38
35577;BME280;21680;52.400;16.920;2023-02-11T10:58:45;101438.71;;;4.52;89.40
35577;BME280;21680;52.400;16.920;2023-02-11T11:01:11;101426.33;;;4.52;89.52
35577;BME280;21680;52.400;16.920;2023-02-11T11:03:47;101419.44;;;4.50;89.69
35577;BME280;21680;52.400;16.920;2023-02-11T11:06:13;101393.26;;;4.48;89.77
35577;BME280;21680;52.400;16.920;2023-02-11T11:11:05;101392.17;;;4.51;89.88
35577;BME280;21680;52.400;16.920;2023-02-11T11:13:39;101378.70;;;4.55;90.09
35577;BME280;21680;52.400;16.920;2023-02-11T11:18:37;101360.44;;;4.59;90.07
35577;BME280;21680;52.400;16.920;2023-02-11T11:21:03;101357.42;;;4.60;90.15
35577;BME280;21680;52.400;16.920;2023-02-11T11:23:33;101343.60;;;4.62;90.22
35577;BME280;21680;52.400;16.920;2023-02-11T11:26:02;101345.73;;;4.63;90.16
35577;BME280;21680;52.400;16.920;2023-02-11T11:28:28;101351.91;;;4.63;90.19
35577;BME280;21680;52.400;16.920;2023-02-11T11:30:55;101368.71;;;4.65;90.18
35577;BME280;21680;52.400;16.920;2023-02-11T11:33:25;101383.58;;;4.66;90.20
35577;BME280;21680;52.400;16.920;2023-02-11T11:35:56;101370.48;;;4.64;90.24
35577;BME280;21680;52.400;16.920;2023-02-11T11:38:22;101379.34;;;4.65;90.48
35577;BME280;21680;52.400;16.920;2023-02-11T11:40:50;101363.41;;;4.64;90.47
35577;BME280;21680;52.400;16.920;2023-02-11T11:43:33;101371.19;;;4.66;90.52
35577;BME280;21680;52.400;16.920;2023-02-11T11:46:01;101360.57;;;4.65;90.62
35577;BME280;21680;52.400;16.920;2023-02-11T11:48:30;101371.19;;;4.65;90.71
35577;BME280;21680;52.400;16.920;2023-02-11T11:51:07;101393.85;;;4.66;90.96
35577;BME280;21680;52.400;16.920;2023-02-11T11:56:22;101390.30;;;4.68;91.18
35577;BME280;21680;52.400;16.920;2023-02-11T11:58:48;101418.62;;;4.67;91.62
35577;BME280;21680;52.400;16.920;2023-02-11T12:01:17;101395.23;;;4.69;91.54
35577;BME280;21680;52.400;16.920;2023-02-11T12:09:03;101413.59;;;4.77;91.79
35577;BME280;21680;52.400;16.920;2023-02-11T12:14:19;101413.41;;;4.78;91.81
35577;BME280;21680;52.400;16.920;2023-02-11T12:27:39;101436.68;;;4.66;92.46
35577;BME280;21680;52.400;16.920;2023-02-11T12:35:22;101426.45;;;4.61;92.84
35577;BME280;21680;52.400;16.920;2023-02-11T12:43:18;101415.87;;;4.56;93.49
35577;BME280;21680;52.400;16.920;2023-02-11T12:51:16;101421.01;;;4.54;94.08
35577;BME280;21680;52.400;16.920;2023-02-11T12:53:48;101431.80;;;4.53;94.56
35577;BME280;21680;52.400;16.920;2023-02-11T12:58:43;101428.79;;;4.53;94.61
35577;BME280;21680;52.400;16.920;2023-02-11T13:01:09;101434.98;;;4.53;94.86
35577;BME280;21680;52.400;16.920;2023-02-11T13:03:40;101429.15;;;4.54;95.00
35577;BME280;21680;52.400;16.920;2023-02-11T13:06:11;101426.66;;;4.54;95.29
35577;BME280;21680;52.400;16.920;2023-02-11T13:16:08;101437.33;;;4.48;95.69
35577;BME280;21680;52.400;16.920;2023-02-11T13:18:44;101442.98;;;4.49;96.23
35577;BME280;21680;52.400;16.920;2023-02-11T13:23:40;101431.65;;;4.51;96.41
35577;BME280;21680;52.400;16.920;2023-02-11T13:28:44;101438.53;;;4.54;96.86
35577;BME280;21680;52.400;16.920;2023-02-11T13:31:12;101427.38;;;4.55;96.92
35577;BME280;21680;52.400;16.920;2023-02-11T13:33:40;101426.33;;;4.52;97.27
35577;BME280;21680;52.400;16.920;2023-02-11T13:36:13;101425.27;;;4.51;97.65
35577;BME280;21680;52.400;16.920;2023-02-11T13:38:39;101431.11;;;4.52;97.80
35577;BME280;21680;52.400;16.920;2023-02-11T13:41:13;101431.28;;;4.52;97.92
35577;BME280;21680;52.400;16.920;2023-02-11T13:43:39;101438.36;;;4.55;98.16
35577;BME280;21680;52.400;16.920;2023-02-11T13:46:06;101439.77;;;4.55;98.23
35577;BME280;21680;52.400;16.920;2023-02-11T13:48:35;101448.78;;;4.56;98.67
35577;BME280;21680;52.400;16.920;2023-02-11T13:51:01;101437.09;;;4.57;98.82
35577;BME280;21680;52.400;16.920;2023-02-11T13:53:27;101440.11;;;4.56;98.70
35577;BME280;21680;52.400;16.920;2023-02-11T13:56:03;101445.41;;;4.56;98.90
35577;BME280;21680;52.400;16.920;2023-02-11T14:00:55;101451.59;;;4.60;98.95
35577;BME280;21680;52.400;16.920;2023-02-11T14:03:21;101449.81;;;4.62;99.21
35577;BME280;21680;52.400;16.920;2023-02-11T14:09:07;101431.72;;;4.68;99.86
35577;BME280;21680;52.400;16.920;2023-02-11T14:27:07;101444.93;;;4.77;100.00
35577;BME280;21680;52.400;16.920;2023-02-11T14:32:28;101450.58;;;4.80;100.00
35577;BME280;21680;52.400;16.920;2023-02-11T14:37:48;101468.77;;;4.86;100.00
35577;BME280;21680;52.400;16.920;2023-02-11T14:40:33;101477.79;;;4.88;100.00
35577;BME280;21680;52.400;16.920;2023-02-11T14:43:06;101481.68;;;4.89;100.00
35577;BME280;21680;52.400;16.920;2023-02-11T14:45:35;101483.27;;;4.91;100.00
35577;BME280;21680;52.400;16.920;2023-02-11T14:50:44;101484.12;;;4.95;100.00
35577;BME280;21680;52.400;16.920;2023-02-11T14:53:12;101486.22;;;4.99;100.00
35577;BME280;21680;52.400;16.920;2023-02-11T14:55:40;101496.30;;;5.02;100.00
35577;BME280;21680;52.400;16.920;2023-02-11T14:58:17;101503.36;;;5.04;100.00
35577;BME280;21680;52.400;16.920;2023-02-11T15:01:25;101513.26;;;5.08;100.00
35577;BME280;21680;52.400;16.920;2023-02-11T15:03:34;101518.55;;;5.11;100.00
35577;BME280;21680;52.400;16.920;2023-02-11T15:08:45;101526.66;;;5.15;100.00
35577;BME280;21680;52.400;16.920;2023-02-11T15:11:12;101526.11;;;5.17;100.00
35577;BME280;21680;52.400;16.920;2023-02-11T15:13:37;101525.56;;;5.19;100.00
35577;BME280;21680;52.400;16.920;2023-02-11T15:16:06;101518.80;;;5.21;100.00